Arnott, Wisconsin
Current Conditions -  °F | °C
As of 9:55 AM on Tuesday 21 Oct 2014 (Local Time) from KSTE Reporting Station
Overcast Overcast  
Wind Chill: 36°   Ceiling: 2000
Heat Index: 42°   Visibility: 10mi
Dew Point: 34°   Wind: 8mph
Humidity: 74%   Direction: 40°NE
Pressure: 30.24"   Gusts: NA
Location:  44.5531°N, 89.5186°W
Report Text: KSTE 211455Z AUTO 04007KT 10SM OVC020 05/01 A3024 RMK AO2 60001 T00530010
Loading
Personal Weather Stations






























Interactive Weather Map New forecast layout! Learn more

10-Day Weather Forecast

Advertisements
Track Severe Weather on mobile